S C — FGF7634 — position and weather

sailwx.info

Track history (hours):
 
Tides and Currents Weather Stations Pressure Air Temp Water Temp Dewpoint Dewpoint Depression Visibility Wind Speed Wind Dir Waves Ship Positions

S C

Last reported at 2016-Feb-10 00:34 UTC. Time now 2016-Feb-10 00:36 UTC.
Position N 49°30' E 000°03'.

; draft 1 m.

Type: Pilot. MMSI: 227001820.

Date/timePositionNaut miles runAvg speedWind from/ knotsBaromVisibWave heightAir tempDewpointWater temp
2016-Feb-10 00:34N 49°30' E 000°03'3 2.8
2016-Feb-09 23:33N 49°29' E 000°07'0 0.0
2016-Feb-09 22:34N 49°29' E 000°07'0 0.0
2016-Feb-09 21:33N 49°29' E 000°07'0 0.0
2016-Feb-09 20:33N 49°29' E 000°07'4 4.4
2016-Feb-09 19:34N 49°29' E 000°00'4 4.4
2016-Feb-09 18:34N 49°29' E 000°07'0 0.0
2016-Feb-09 17:34N 49°29' E 000°07'2 2.4
2016-Feb-09 16:33N 49°30' E 000°03'2 2.4
2016-Feb-09 15:34N 49°29' E 000°07'2 2.1
2016-Feb-09 14:33N 49°30' E 000°04'0 0.5
2016-Feb-09 13:34N 49°30' E 000°03'0 0.1
2016-Feb-09 12:33N 49°30' E 000°03'1 0.7
2016-Feb-09 11:34N 49°29' E 000°04'1 1.4
2016-Feb-09 10:33N 49°29' E 000°06'1 0.5
2016-Feb-09 09:33N 49°29' E 000°07'0 0.0
2016-Feb-09 08:33N 49°29' E 000°07'7 6.9
2016-Feb-09 07:33N 49°32' W 000°03'7 6.9
2016-Feb-09 06:34N 49°29' E 000°07'3 3.0
2016-Feb-09 05:34N 49°30' E 000°02'3 3.0
2016-Feb-09 04:33N 49°29' E 000°07'0 0.0
2016-Feb-09 03:34N 49°29' E 000°07'4 4.4
2016-Feb-09 02:33N 49°30' E 000°00'4 4.4
2016-Feb-09 01:33N 49°29' E 000°07'0 0.2
2016-Feb-09 00:33N 49°29' E 000°06'0 0.2
2016-Feb-08 23:34N 49°29' E 000°07'0 0.0
2016-Feb-08 22:34N 49°29' E 000°07'0 0.0
2016-Feb-08 21:34N 49°29' E 000°07'0 0.0
2016-Feb-08 20:34N 49°29' E 000°07'0 0.0
2016-Feb-08 19:33N 49°29' E 000°07'0 0.0
2016-Feb-08 18:34N 49°29' E 000°07'0 0.0
2016-Feb-08 17:34N 49°29' E 000°07'0 0.0
2016-Feb-08 16:33N 49°29' E 000°07'0 0.0
2016-Feb-08 15:34N 49°29' E 000°07'0 0.0
2016-Feb-08 14:33N 49°29' E 000°07'0 0.0
2016-Feb-08 13:34N 49°29' E 000°07'0 0.0
2016-Feb-08 12:34N 49°29' E 000°07'0 0.0
2016-Feb-08 11:34N 49°29' E 000°07'0 0.0
2016-Feb-08 10:33N 49°29' E 000°07'0 0.0
2016-Feb-08 09:34N 49°29' E 000°07'0 0.0
2016-Feb-08 08:33N 49°29' E 000°07'0 0.0
2016-Feb-08 07:34N 49°29' E 000°07'0 0.0
2016-Feb-08 06:33N 49°29' E 000°07'0 0.0
2016-Feb-08 05:33N 49°29' E 000°07'0 0.0
2016-Feb-08 04:33N 49°29' E 000°07'0 0.0
2016-Feb-08 03:33N 49°29' E 000°07'0 0.0
2016-Feb-08 02:33N 49°29' E 000°07'0 0.0
2016-Feb-07 22:11N 49°29' E 000°07'0 0.0
2016-Feb-07 21:34N 49°29' E 000°07'4 3.6
2016-Feb-07 20:33N 49°30' E 000°01'4 3.7
2016-Feb-07 19:33N 49°29' E 000°07'0 0.0
2016-Feb-07 18:34N 49°29' E 000°07'0 0.0
2016-Feb-07 17:33N 49°29' E 000°07'0 0.0
2016-Feb-07 16:34N 49°29' E 000°07'0 0.0
2016-Feb-07 15:33N 49°29' E 000°07'7 7.0
2016-Feb-07 14:32N 49°31' W 000°04'7 7.2
2016-Feb-07 13:33N 49°29' E 000°07'0 0.0
2016-Feb-07 12:33N 49°29' E 000°07'0 0.0
2016-Feb-07 11:33N 49°29' E 000°07'0 0.0
2016-Feb-07 10:33N 49°29' E 000°07'0 0.0
2016-Feb-07 09:33N 49°29' E 000°07'0 0.0
2016-Feb-07 08:33N 49°29' E 000°07'0 0.0
2016-Feb-07 07:33N 49°29' E 000°07'0 0.0
2016-Feb-07 06:33N 49°29' E 000°07'0 0.0
2016-Feb-07 05:33N 49°29' E 000°07'0 0.0
2016-Feb-07 04:33N 49°29' E 000°07'1 1.1
2016-Feb-07 03:33N 49°29' E 000°05'1 1.1
2016-Feb-07 02:34N 49°29' E 000°07'0 0.0
2016-Feb-07 01:33N 49°29' E 000°07'0 0.0
2016-Feb-07 00:34N 49°29' E 000°07'0 0.0
2016-Feb-06 23:33N 49°29' E 000°07'0 0.0
2016-Feb-06 22:33N 49°29' E 000°07'0 0.0
2016-Feb-06 21:33N 49°29' E 000°07'7 7.0
2016-Feb-06 20:34N 49°32' W 000°03'7 6.5
2016-Feb-06 19:33N 49°29' E 000°06'0 0.5
2016-Feb-06 18:33N 49°29' E 000°07'0 0.0
2016-Feb-06 17:33N 49°29' E 000°07'0 0.0
2016-Feb-06 16:33N 49°29' E 000°07'0 0.0
2016-Feb-06 15:34N 49°29' E 000°07'0 0.0
2016-Feb-06 14:33N 49°29' E 000°07'0 0.0
2016-Feb-06 13:34N 49°29' E 000°07'0 0.0
2016-Feb-06 12:33N 49°29' E 000°07'0 0.4
2016-Feb-06 11:34N 49°29' E 000°06'0 0.4
2016-Feb-06 10:33N 49°29' E 000°07'0 0.0
2016-Feb-06 09:34N 49°29' E 000°07'0 0.0
2016-Feb-06 08:34N 49°29' E 000°07'0 0.5
2016-Feb-06 07:34N 49°29' E 000°06'0 0.5
2016-Feb-06 06:33N 49°29' E 000°07'2 2.4
2016-Feb-06 05:33N 49°30' E 000°03'2 2.4
2016-Feb-06 04:33N 49°29' E 000°07'10 9.7
2016-Feb-06 03:33N 49°32' W 000°08'10 9.9
2016-Feb-06 02:33N 49°29' E 000°07'0 0.0
2016-Feb-06 01:33N 49°29' E 000°07'0 0.0
2016-Feb-06 00:33N 49°29' E 000°07'0 0.0
2016-Feb-05 23:33N 49°29' E 000°07'7 6.6
2016-Feb-05 22:34N 49°31' W 000°03'7 6.6
2016-Feb-05 21:34N 49°29' E 000°07'0 0.0
2016-Feb-05 20:34N 49°29' E 000°07'0 0.0
2016-Feb-05 19:34N 49°29' E 000°07'2 2.2
2016-Feb-05 18:34N 49°29' E 000°04'2 2.2
2016-Feb-05 17:33N 49°29' E 000°07'2 2.3
2016-Feb-05 16:33N 49°30' E 000°03'1 0.9
2016-Feb-05 15:33N 49°29' E 000°05'1 1.3
2016-Feb-05 14:33N 49°29' E 000°07'6 6.3
2016-Feb-05 13:33N 49°31' W 000°03'6 5.9
2016-Feb-05 12:34N 49°29' E 000°06'0 0.3
2016-Feb-05 11:33N 49°29' E 000°06'0 0.2
2016-Feb-05 10:33N 49°29' E 000°07'0 0.1
2016-Feb-05 09:33N 49°29' E 000°07'0 0.0
2016-Feb-05 08:33N 49°29' E 000°07'0 0.1
2016-Feb-05 07:33N 49°29' E 000°07'0 0.1
2016-Feb-05 06:33N 49°29' E 000°07'1 1.3
2016-Feb-05 05:33N 49°29' E 000°05'1 0.8
2016-Feb-05 04:34N 49°29' E 000°06'1 0.6
2016-Feb-05 03:34N 49°29' E 000°07'8 8.2
2016-Feb-05 02:33N 49°31' W 000°05'8 8.2
2016-Feb-05 01:33N 49°29' E 000°07'0 0.0
2016-Feb-05 00:33N 49°29' E 000°07'2 2.0
2016-Feb-04 23:34N 49°29' E 000°04'2 2.0
2016-Feb-04 22:33N 49°29' E 000°07'5 5.0
2016-Feb-04 21:33N 49°30' W 000°01'5 5.0
2016-Feb-04 20:34N 49°29' E 000°07'0 0.0
2016-Feb-04 19:34N 49°29' E 000°07'10 9.6
2016-Feb-04 18:33N 49°31' W 000°07'10 9.6
2016-Feb-04 17:33N 49°29' E 000°07'0 0.0
2016-Feb-04 16:33N 49°29' E 000°07'0 0.0
2016-Feb-04 15:33N 49°29' E 000°07'0 0.0
2016-Feb-04 14:33N 49°29' E 000°07'0 0.0
2016-Feb-04 13:33N 49°29' E 000°07'0 0.0
2016-Feb-04 12:33N 49°29' E 000°07'3 3.1
2016-Feb-04 11:33N 49°30' E 000°02'3 3.1
2016-Feb-04 10:33N 49°29' E 000°07'0 0.0
2016-Feb-04 09:33N 49°29' E 000°07'0 0.0
2016-Feb-04 08:33N 49°29' E 000°07'0 0.0
2016-Feb-04 07:33N 49°29' E 000°07'0 0.0
2016-Feb-04 06:33N 49°29' E 000°07'0 0.0
2016-Feb-04 05:33N 49°29' E 000°07'0 0.0
2016-Feb-04 04:33N 49°29' E 000°07'6 5.6
2016-Feb-04 03:33N 49°30' W 000°02'6 5.6
2016-Feb-04 02:33N 49°29' E 000°07'0 0.0
2016-Feb-04 01:33N 49°29' E 000°07'0 0.0
2016-Feb-04 00:33N 49°29' E 000°07'0 0.0
2016-Feb-03 23:33N 49°29' E 000°07'0 0.0
2016-Feb-03 22:33N 49°29' E 000°07'0 0.0
2016-Feb-03 21:33N 49°29' E 000°07'0 0.0
2016-Feb-03 20:33N 49°29' E 000°07'0 0.0
2016-Feb-03 19:33N 49°29' E 000°07'0 0.0
2016-Feb-03 18:33N 49°29' E 000°07'0 0.0
2016-Feb-03 17:33N 49°29' E 000°07'0 0.0
2016-Feb-03 16:33N 49°29' E 000°07'0 0.0
2016-Feb-03 15:33N 49°29' E 000°07'0 0.0
2016-Feb-03 14:33N 49°29' E 000°07'0 0.0
2016-Feb-03 13:33N 49°29' E 000°07'0 0.0
2016-Feb-03 12:33N 49°29' E 000°07'0 0.0
2016-Feb-03 11:33N 49°29' E 000°07'0 0.1
2016-Feb-03 10:33N 49°29' E 000°07'0 0.1
2016-Feb-03 09:33N 49°29' E 000°07'0 0.0
2016-Feb-03 08:33N 49°29' E 000°07'1 1.5
2016-Feb-03 07:33N 49°29' E 000°05'1 1.5
2016-Feb-03 06:34N 49°29' E 000°07'3 3.1
2016-Feb-03 05:34N 49°30' E 000°02'3 3.1
2016-Feb-03 04:34N 49°29' E 000°07'0 0.0
2016-Feb-03 03:34N 49°29' E 000°07'0 0.0
2016-Feb-03 02:34N 49°29' E 000°07'0 0.0
2016-Feb-03 01:33N 49°29' E 000°07'1 0.7
2016-Feb-03 00:33N 49°29' E 000°06'6 6.3
2016-Feb-02 23:34N 49°31' W 000°04'7 7.0
2016-Feb-02 22:34N 49°29' E 000°07'0 0.0
2016-Feb-02 21:34N 49°29' E 000°07'1 1.1
2016-Feb-02 20:33N 49°29' E 000°05'1 0.9
2016-Feb-02 19:33N 49°29' E 000°06'2 1.7
2016-Feb-02 18:33N 49°29' E 000°04'2 1.9
2016-Feb-02 17:34N 49°29' E 000°07'0 0.0
2016-Feb-02 16:34N 49°29' E 000°07'0 0.0
2016-Feb-02 15:33N 49°29' E 000°07'1 0.6
2016-Feb-02 14:34N 49°29' E 000°06'1 0.6
2016-Feb-02 13:33N 49°29' E 000°07'0 0.0
2016-Feb-02 12:33N 49°29' E 000°07'0 0.0
2016-Feb-02 11:34N 49°29' E 000°07'0 0.0
2016-Feb-02 10:33N 49°29' E 000°07'0 0.0
2016-Feb-02 09:33N 49°29' E 000°07'0 0.0
2016-Feb-02 08:33N 49°29' E 000°07'0 0.0
2016-Feb-02 07:33N 49°29' E 000°07'0 0.0
2016-Feb-02 06:33N 49°29' E 000°07'0 0.1
2016-Feb-02 05:34N 49°29' E 000°07'0 0.1
2016-Feb-02 04:33N 49°29' E 000°07'0 0.0
2016-Feb-02 03:34N 49°29' E 000°07'0 0.0
2016-Feb-02 02:33N 49°29' E 000°07'0 0.0
2016-Feb-02 01:33N 49°29' E 000°07'3 3.0
2016-Feb-02 00:33N 49°30' E 000°02'3 3.0
2016-Feb-01 23:34N 49°29' E 000°07'0 0.0
2016-Feb-01 22:34N 49°29' E 000°07'0 0.0
2016-Feb-01 21:34N 49°29' E 000°07'0 0.0
2016-Feb-01 20:33N 49°29' E 000°07'0 0.2
2016-Feb-01 19:33N 49°29' E 000°06'1 1.5
2016-Feb-01 18:34N 49°29' E 000°04'2 1.7
2016-Feb-01 17:33N 49°29' E 000°07'0 0.0
2016-Feb-01 16:33N 49°29' E 000°07'0 0.0
2016-Feb-01 15:33N 49°29' E 000°07'0 0.0
2016-Feb-01 14:33N 49°29' E 000°07'4 4.4
2016-Feb-01 13:34N 49°30' E 000°00'4 4.4
2016-Feb-01 12:33N 49°29' E 000°07'0 0.0
2016-Feb-01 11:34N 49°29' E 000°07'0 0.0
2016-Feb-01 10:34N 49°29' E 000°07'0 0.0
2016-Feb-01 09:34N 49°29' E 000°07'2 2.3
2016-Feb-01 08:34N 49°30' E 000°03'2 2.3
2016-Feb-01 07:33N 49°29' E 000°07'0 0.0
2016-Feb-01 06:33N 49°29' E 000°07'3 2.6
2016-Feb-01 05:33N 49°30' E 000°03'3 2.6
2016-Feb-01 04:33N 49°29' E 000°07'0 0.0
2016-Feb-01 03:33N 49°29' E 000°07'9 8.8
2016-Feb-01 02:33N 49°31' W 000°06'9 8.8
2016-Feb-01 01:33N 49°29' E 000°07'0 0.0
2016-Feb-01 00:33N 49°29' E 000°07'0 0.0
2016-Jan-31 23:33N 49°29' E 000°07'0 0.0
2016-Jan-31 22:33N 49°29' E 000°07'2 1.9
2016-Jan-31 21:33N 49°29' E 000°04'2 1.9
2016-Jan-31 20:33N 49°29' E 000°07'0 0.0
2016-Jan-31 19:33N 49°29' E 000°07'0 0.0
2016-Jan-31 18:33N 49°29' E 000°07'0 0.0
2016-Jan-31 17:33N 49°29' E 000°07'0 0.0
2016-Jan-31 16:33N 49°29' E 000°07'0 0.0
2016-Jan-31 15:33N 49°29' E 000°07'4 3.8
2016-Jan-31 14:33N 49°30' E 000°01'1 1.4
2016-Jan-31 13:33N 49°30' E 000°03'6 5.6
2016-Jan-31 12:33N 49°31' W 000°05'8 8.1
2016-Jan-31 11:34N 49°29' E 000°07'0 0.0
2016-Jan-31 10:34N 49°29' E 000°07'0 0.0
2016-Jan-31 09:33N 49°29' E 000°07'0 0.0
2016-Jan-31 08:34N 49°29' E 000°07'0 0.0
2016-Jan-31 07:33N 49°29' E 000°07'0 0.0
2016-Jan-31 06:33N 49°29' E 000°07'0 0.0
2016-Jan-31 05:34N 49°29' E 000°07'0 0.0
2016-Jan-31 04:33N 49°29' E 000°07'7 6.5
2016-Jan-31 03:33N 49°31' W 000°03'6 6.5
2016-Jan-31 02:33N 49°29' E 000°07'0 0.1
2016-Jan-31 01:33N 49°29' E 000°07'0 0.0
2016-Jan-31 00:33N 49°29' E 000°07'  
Track history (hours):
 
Tides and Currents Weather Stations Pressure Air Temp Water Temp Dewpoint Dewpoint Depression Visibility Wind Speed Wind Dir Waves Ship Positions

S C

Last reported at 2016-Feb-10 00:34 UTC. Time now 2016-Feb-10 00:36 UTC.
Position N 49°30' E 000°03'.

; draft 1 m.

Type: Pilot. MMSI: 227001820.

Date/timePositionNaut miles runAvg speedWind from/ knotsBaromVisibWave heightAir tempDewpointWater temp
2016-Feb-10 00:34N 49°30' E 000°03'3 2.8
2016-Feb-09 23:33N 49°29' E 000°07'0 0.0
2016-Feb-09 22:34N 49°29' E 000°07'0 0.0
2016-Feb-09 21:33N 49°29' E 000°07'0 0.0
2016-Feb-09 20:33N 49°29' E 000°07'4 4.4
2016-Feb-09 19:34N 49°29' E 000°00'4 4.4
2016-Feb-09 18:34N 49°29' E 000°07'0 0.0
2016-Feb-09 17:34N 49°29' E 000°07'2 2.4
2016-Feb-09 16:33N 49°30' E 000°03'2 2.4
2016-Feb-09 15:34N 49°29' E 000°07'2 2.1
2016-Feb-09 14:33N 49°30' E 000°04'0 0.5
2016-Feb-09 13:34N 49°30' E 000°03'0 0.1
2016-Feb-09 12:33N 49°30' E 000°03'1 0.7
2016-Feb-09 11:34N 49°29' E 000°04'1 1.4
2016-Feb-09 10:33N 49°29' E 000°06'1 0.5
2016-Feb-09 09:33N 49°29' E 000°07'0 0.0
2016-Feb-09 08:33N 49°29' E 000°07'7 6.9
2016-Feb-09 07:33N 49°32' W 000°03'7 6.9
2016-Feb-09 06:34N 49°29' E 000°07'3 3.0
2016-Feb-09 05:34N 49°30' E 000°02'3 3.0
2016-Feb-09 04:33N 49°29' E 000°07'0 0.0
2016-Feb-09 03:34N 49°29' E 000°07'4 4.4
2016-Feb-09 02:33N 49°30' E 000°00'4 4.4
2016-Feb-09 01:33N 49°29' E 000°07'0 0.2
2016-Feb-09 00:33N 49°29' E 000°06'0 0.2
2016-Feb-08 23:34N 49°29' E 000°07'0 0.0
2016-Feb-08 22:34N 49°29' E 000°07'0 0.0
2016-Feb-08 21:34N 49°29' E 000°07'0 0.0
2016-Feb-08 20:34N 49°29' E 000°07'0 0.0
2016-Feb-08 19:33N 49°29' E 000°07'0 0.0
2016-Feb-08 18:34N 49°29' E 000°07'0 0.0
2016-Feb-08 17:34N 49°29' E 000°07'0 0.0
2016-Feb-08 16:33N 49°29' E 000°07'0 0.0
2016-Feb-08 15:34N 49°29' E 000°07'0 0.0
2016-Feb-08 14:33N 49°29' E 000°07'0 0.0
2016-Feb-08 13:34N 49°29' E 000°07'0 0.0
2016-Feb-08 12:34N 49°29' E 000°07'0 0.0
2016-Feb-08 11:34N 49°29' E 000°07'0 0.0
2016-Feb-08 10:33N 49°29' E 000°07'0 0.0
2016-Feb-08 09:34N 49°29' E 000°07'0 0.0
2016-Feb-08 08:33N 49°29' E 000°07'0 0.0
2016-Feb-08 07:34N 49°29' E 000°07'0 0.0
2016-Feb-08 06:33N 49°29' E 000°07'0 0.0
2016-Feb-08 05:33N 49°29' E 000°07'0 0.0
2016-Feb-08 04:33N 49°29' E 000°07'0 0.0
2016-Feb-08 03:33N 49°29' E 000°07'0 0.0
2016-Feb-08 02:33N 49°29' E 000°07'0 0.0
2016-Feb-07 22:11N 49°29' E 000°07'0 0.0
2016-Feb-07 21:34N 49°29' E 000°07'4 3.6
2016-Feb-07 20:33N 49°30' E 000°01'4 3.7
2016-Feb-07 19:33N 49°29' E 000°07'0 0.0
2016-Feb-07 18:34N 49°29' E 000°07'0 0.0
2016-Feb-07 17:33N 49°29' E 000°07'0 0.0
2016-Feb-07 16:34N 49°29' E 000°07'0 0.0
2016-Feb-07 15:33N 49°29' E 000°07'7 7.0
2016-Feb-07 14:32N 49°31' W 000°04'7 7.2
2016-Feb-07 13:33N 49°29' E 000°07'0 0.0
2016-Feb-07 12:33N 49°29' E 000°07'0 0.0
2016-Feb-07 11:33N 49°29' E 000°07'0 0.0
2016-Feb-07 10:33N 49°29' E 000°07'0 0.0
2016-Feb-07 09:33N 49°29' E 000°07'0 0.0
2016-Feb-07 08:33N 49°29' E 000°07'0 0.0
2016-Feb-07 07:33N 49°29' E 000°07'0 0.0
2016-Feb-07 06:33N 49°29' E 000°07'0 0.0
2016-Feb-07 05:33N 49°29' E 000°07'0 0.0
2016-Feb-07 04:33N 49°29' E 000°07'1 1.1
2016-Feb-07 03:33N 49°29' E 000°05'1 1.1
2016-Feb-07 02:34N 49°29' E 000°07'0 0.0
2016-Feb-07 01:33N 49°29' E 000°07'0 0.0
2016-Feb-07 00:34N 49°29' E 000°07'0 0.0
2016-Feb-06 23:33N 49°29' E 000°07'0 0.0
2016-Feb-06 22:33N 49°29' E 000°07'0 0.0
2016-Feb-06 21:33N 49°29' E 000°07'7 7.0
2016-Feb-06 20:34N 49°32' W 000°03'7 6.5
2016-Feb-06 19:33N 49°29' E 000°06'0 0.5
2016-Feb-06 18:33N 49°29' E 000°07'0 0.0
2016-Feb-06 17:33N 49°29' E 000°07'0 0.0
2016-Feb-06 16:33N 49°29' E 000°07'0 0.0
2016-Feb-06 15:34N 49°29' E 000°07'0 0.0
2016-Feb-06 14:33N 49°29' E 000°07'0 0.0
2016-Feb-06 13:34N 49°29' E 000°07'0 0.0
2016-Feb-06 12:33N 49°29' E 000°07'0 0.4
2016-Feb-06 11:34N 49°29' E 000°06'0 0.4
2016-Feb-06 10:33N 49°29' E 000°07'0 0.0
2016-Feb-06 09:34N 49°29' E 000°07'0 0.0
2016-Feb-06 08:34N 49°29' E 000°07'0 0.5
2016-Feb-06 07:34N 49°29' E 000°06'0 0.5
2016-Feb-06 06:33N 49°29' E 000°07'2 2.4
2016-Feb-06 05:33N 49°30' E 000°03'2 2.4
2016-Feb-06 04:33N 49°29' E 000°07'10 9.7
2016-Feb-06 03:33N 49°32' W 000°08'10 9.9
2016-Feb-06 02:33N 49°29' E 000°07'0 0.0
2016-Feb-06 01:33N 49°29' E 000°07'0 0.0
2016-Feb-06 00:33N 49°29' E 000°07'0 0.0
2016-Feb-05 23:33N 49°29' E 000°07'7 6.6
2016-Feb-05 22:34N 49°31' W 000°03'7 6.6
2016-Feb-05 21:34N 49°29' E 000°07'0 0.0
2016-Feb-05 20:34N 49°29' E 000°07'0 0.0
2016-Feb-05 19:34N 49°29' E 000°07'2 2.2
2016-Feb-05 18:34N 49°29' E 000°04'2 2.2
2016-Feb-05 17:33N 49°29' E 000°07'2 2.3
2016-Feb-05 16:33N 49°30' E 000°03'1 0.9
2016-Feb-05 15:33N 49°29' E 000°05'1 1.3
2016-Feb-05 14:33N 49°29' E 000°07'6 6.3
2016-Feb-05 13:33N 49°31' W 000°03'6 5.9
2016-Feb-05 12:34N 49°29' E 000°06'0 0.3
2016-Feb-05 11:33N 49°29' E 000°06'0 0.2
2016-Feb-05 10:33N 49°29' E 000°07'0 0.1
2016-Feb-05 09:33N 49°29' E 000°07'0 0.0
2016-Feb-05 08:33N 49°29' E 000°07'0 0.1
2016-Feb-05 07:33N 49°29' E 000°07'0 0.1
2016-Feb-05 06:33N 49°29' E 000°07'1 1.3
2016-Feb-05 05:33N 49°29' E 000°05'1 0.8
2016-Feb-05 04:34N 49°29' E 000°06'1 0.6
2016-Feb-05 03:34N 49°29' E 000°07'8 8.2
2016-Feb-05 02:33N 49°31' W 000°05'8 8.2
2016-Feb-05 01:33N 49°29' E 000°07'0 0.0
2016-Feb-05 00:33N 49°29' E 000°07'2 2.0
2016-Feb-04 23:34N 49°29' E 000°04'2 2.0
2016-Feb-04 22:33N 49°29' E 000°07'5 5.0
2016-Feb-04 21:33N 49°30' W 000°01'5 5.0
2016-Feb-04 20:34N 49°29' E 000°07'0 0.0
2016-Feb-04 19:34N 49°29' E 000°07'10 9.6
2016-Feb-04 18:33N 49°31' W 000°07'10 9.6
2016-Feb-04 17:33N 49°29' E 000°07'0 0.0
2016-Feb-04 16:33N 49°29' E 000°07'0 0.0
2016-Feb-04 15:33N 49°29' E 000°07'0 0.0
2016-Feb-04 14:33N 49°29' E 000°07'0 0.0
2016-Feb-04 13:33N 49°29' E 000°07'0 0.0
2016-Feb-04 12:33N 49°29' E 000°07'3 3.1
2016-Feb-04 11:33N 49°30' E 000°02'3 3.1
2016-Feb-04 10:33N 49°29' E 000°07'0 0.0
2016-Feb-04 09:33N 49°29' E 000°07'0 0.0
2016-Feb-04 08:33N 49°29' E 000°07'0 0.0
2016-Feb-04 07:33N 49°29' E 000°07'0 0.0
2016-Feb-04 06:33N 49°29' E 000°07'0 0.0
2016-Feb-04 05:33N 49°29' E 000°07'0 0.0
2016-Feb-04 04:33N 49°29' E 000°07'6 5.6
2016-Feb-04 03:33N 49°30' W 000°02'6 5.6
2016-Feb-04 02:33N 49°29' E 000°07'0 0.0
2016-Feb-04 01:33N 49°29' E 000°07'0 0.0
2016-Feb-04 00:33N 49°29' E 000°07'0 0.0
2016-Feb-03 23:33N 49°29' E 000°07'0 0.0
2016-Feb-03 22:33N 49°29' E 000°07'0 0.0
2016-Feb-03 21:33N 49°29' E 000°07'0 0.0
2016-Feb-03 20:33N 49°29' E 000°07'0 0.0
2016-Feb-03 19:33N 49°29' E 000°07'0 0.0
2016-Feb-03 18:33N 49°29' E 000°07'0 0.0
2016-Feb-03 17:33N 49°29' E 000°07'0 0.0
2016-Feb-03 16:33N 49°29' E 000°07'0 0.0
2016-Feb-03 15:33N 49°29' E 000°07'0 0.0
2016-Feb-03 14:33N 49°29' E 000°07'0 0.0
2016-Feb-03 13:33N 49°29' E 000°07'0 0.0
2016-Feb-03 12:33N 49°29' E 000°07'0 0.0
2016-Feb-03 11:33N 49°29' E 000°07'0 0.1
2016-Feb-03 10:33N 49°29' E 000°07'0 0.1
2016-Feb-03 09:33N 49°29' E 000°07'0 0.0
2016-Feb-03 08:33N 49°29' E 000°07'1 1.5
2016-Feb-03 07:33N 49°29' E 000°05'1 1.5
2016-Feb-03 06:34N 49°29' E 000°07'3 3.1
2016-Feb-03 05:34N 49°30' E 000°02'3 3.1
2016-Feb-03 04:34N 49°29' E 000°07'0 0.0
2016-Feb-03 03:34N 49°29' E 000°07'0 0.0
2016-Feb-03 02:34N 49°29' E 000°07'0 0.0
2016-Feb-03 01:33N 49°29' E 000°07'1 0.7
2016-Feb-03 00:33N 49°29' E 000°06'6 6.3
2016-Feb-02 23:34N 49°31' W 000°04'7 7.0
2016-Feb-02 22:34N 49°29' E 000°07'0 0.0
2016-Feb-02 21:34N 49°29' E 000°07'1 1.1
2016-Feb-02 20:33N 49°29' E 000°05'1 0.9
2016-Feb-02 19:33N 49°29' E 000°06'2 1.7
2016-Feb-02 18:33N 49°29' E 000°04'2 1.9
2016-Feb-02 17:34N 49°29' E 000°07'0 0.0
2016-Feb-02 16:34N 49°29' E 000°07'0 0.0
2016-Feb-02 15:33N 49°29' E 000°07'1 0.6
2016-Feb-02 14:34N 49°29' E 000°06'1 0.6
2016-Feb-02 13:33N 49°29' E 000°07'0 0.0
2016-Feb-02 12:33N 49°29' E 000°07'0 0.0
2016-Feb-02 11:34N 49°29' E 000°07'0 0.0
2016-Feb-02 10:33N 49°29' E 000°07'0 0.0
2016-Feb-02 09:33N 49°29' E 000°07'0 0.0
2016-Feb-02 08:33N 49°29' E 000°07'0 0.0
2016-Feb-02 07:33N 49°29' E 000°07'0 0.0
2016-Feb-02 06:33N 49°29' E 000°07'0 0.1
2016-Feb-02 05:34N 49°29' E 000°07'0 0.1
2016-Feb-02 04:33N 49°29' E 000°07'0 0.0
2016-Feb-02 03:34N 49°29' E 000°07'0 0.0
2016-Feb-02 02:33N 49°29' E 000°07'0 0.0
2016-Feb-02 01:33N 49°29' E 000°07'3 3.0
2016-Feb-02 00:33N 49°30' E 000°02'3 3.0
2016-Feb-01 23:34N 49°29' E 000°07'0 0.0
2016-Feb-01 22:34N 49°29' E 000°07'0 0.0
2016-Feb-01 21:34N 49°29' E 000°07'0 0.0
2016-Feb-01 20:33N 49°29' E 000°07'0 0.2
2016-Feb-01 19:33N 49°29' E 000°06'1 1.5
2016-Feb-01 18:34N 49°29' E 000°04'2 1.7
2016-Feb-01 17:33N 49°29' E 000°07'0 0.0
2016-Feb-01 16:33N 49°29' E 000°07'0 0.0
2016-Feb-01 15:33N 49°29' E 000°07'0 0.0
2016-Feb-01 14:33N 49°29' E 000°07'4 4.4
2016-Feb-01 13:34N 49°30' E 000°00'4 4.4
2016-Feb-01 12:33N 49°29' E 000°07'0 0.0
2016-Feb-01 11:34N 49°29' E 000°07'0 0.0
2016-Feb-01 10:34N 49°29' E 000°07'0 0.0
2016-Feb-01 09:34N 49°29' E 000°07'2 2.3
2016-Feb-01 08:34N 49°30' E 000°03'2 2.3
2016-Feb-01 07:33N 49°29' E 000°07'0 0.0
2016-Feb-01 06:33N 49°29' E 000°07'3 2.6
2016-Feb-01 05:33N 49°30' E 000°03'3 2.6
2016-Feb-01 04:33N 49°29' E 000°07'0 0.0
2016-Feb-01 03:33N 49°29' E 000°07'9 8.8
2016-Feb-01 02:33N 49°31' W 000°06'9 8.8
2016-Feb-01 01:33N 49°29' E 000°07'0 0.0
2016-Feb-01 00:33N 49°29' E 000°07'0 0.0
2016-Jan-31 23:33N 49°29' E 000°07'0 0.0
2016-Jan-31 22:33N 49°29' E 000°07'2 1.9
2016-Jan-31 21:33N 49°29' E 000°04'2 1.9
2016-Jan-31 20:33N 49°29' E 000°07'0 0.0
2016-Jan-31 19:33N 49°29' E 000°07'0 0.0
2016-Jan-31 18:33N 49°29' E 000°07'0 0.0
2016-Jan-31 17:33N 49°29' E 000°07'0 0.0
2016-Jan-31 16:33N 49°29' E 000°07'0 0.0
2016-Jan-31 15:33N 49°29' E 000°07'4 3.8
2016-Jan-31 14:33N 49°30' E 000°01'1 1.4
2016-Jan-31 13:33N 49°30' E 000°03'6 5.6
2016-Jan-31 12:33N 49°31' W 000°05'8 8.1
2016-Jan-31 11:34N 49°29' E 000°07'0 0.0
2016-Jan-31 10:34N 49°29' E 000°07'0 0.0
2016-Jan-31 09:33N 49°29' E 000°07'0 0.0
2016-Jan-31 08:34N 49°29' E 000°07'0 0.0
2016-Jan-31 07:33N 49°29' E 000°07'0 0.0
2016-Jan-31 06:33N 49°29' E 000°07'0 0.0
2016-Jan-31 05:34N 49°29' E 000°07'0 0.0
2016-Jan-31 04:33N 49°29' E 000°07'7 6.5
2016-Jan-31 03:33N 49°31' W 000°03'6 6.5
2016-Jan-31 02:33N 49°29' E 000°07'0 0.1
2016-Jan-31 01:33N 49°29' E 000°07'0 0.0
2016-Jan-31 00:33N 49°29' E 000°07'  

Dump ship's entire track history